createdAt,value
2018-06-15T00:00:37.423Z,11.00
2018-06-15T00:03:06.661Z,10.90
2018-06-15T00:05:35.352Z,11.00
2018-06-15T00:08:03.894Z,10.90
2018-06-15T00:10:32.440Z,10.90
2018-06-15T00:13:01.518Z,10.80
2018-06-15T00:15:30.112Z,10.80
2018-06-15T00:17:58.888Z,10.90
2018-06-15T00:20:27.337Z,10.90
2018-06-15T00:22:56.408Z,10.90
2018-06-15T00:25:25.663Z,10.80
2018-06-15T00:27:54.147Z,10.80
2018-06-15T00:30:22.915Z,10.80
2018-06-15T00:32:51.357Z,10.80
2018-06-15T00:35:20.083Z,10.90
2018-06-15T00:37:48.775Z,10.80
2018-06-15T00:40:17.559Z,10.70
2018-06-15T00:42:46.280Z,10.70
2018-06-15T00:45:14.878Z,10.70
2018-06-15T00:47:43.589Z,10.70
2018-06-15T00:50:12.027Z,10.70
2018-06-15T00:52:40.644Z,10.70
2018-06-15T00:55:09.284Z,10.60
2018-06-15T00:57:48.254Z,10.50
2018-06-15T01:00:17.488Z,10.60
2018-06-15T01:02:46.259Z,10.50
2018-06-15T01:05:14.939Z,10.60
2018-06-15T01:07:44.258Z,10.50
2018-06-15T01:10:13.060Z,10.50
2018-06-15T01:12:41.785Z,10.40
2018-06-15T01:15:11.110Z,10.40
2018-06-15T01:17:39.851Z,10.40
2018-06-15T01:20:08.435Z,10.40
2018-06-15T01:22:36.952Z,10.30
2018-06-15T01:25:05.536Z,10.20
2018-06-15T01:27:34.097Z,10.10
2018-06-15T01:30:02.670Z,10.00
2018-06-15T01:32:31.483Z,9.90
2018-06-15T01:35:00.072Z,9.90
2018-06-15T01:37:28.612Z,9.90
2018-06-15T01:39:57.206Z,9.90
2018-06-15T01:42:26.818Z,9.90
2018-06-15T01:44:55.300Z,9.80
2018-06-15T01:47:24.738Z,9.80
2018-06-15T01:49:53.889Z,9.80
2018-06-15T01:52:22.423Z,9.80
2018-06-15T01:54:50.934Z,9.70
2018-06-15T01:57:19.527Z,9.60
2018-06-15T01:59:49.176Z,9.60
2018-06-15T02:02:17.607Z,9.80
2018-06-15T02:04:46.116Z,9.90
2018-06-15T02:07:14.718Z,10.00
2018-06-15T02:09:43.308Z,10.10
2018-06-15T02:12:11.809Z,10.10
2018-06-15T02:14:40.303Z,10.00
2018-06-15T02:17:08.728Z,9.90
2018-06-15T02:19:37.285Z,9.90
2018-06-15T02:22:05.684Z,9.90
2018-06-15T02:24:34.250Z,9.90
2018-06-15T02:27:02.680Z,9.90
2018-06-15T02:29:31.335Z,9.90
2018-06-15T02:31:59.936Z,9.90
2018-06-15T02:34:28.544Z,9.90
2018-06-15T02:36:56.988Z,9.80
2018-06-15T02:39:25.520Z,9.70
2018-06-15T02:41:54.192Z,9.70
2018-06-15T02:46:51.003Z,9.60
2018-06-15T02:49:19.991Z,9.70
2018-06-15T02:51:48.510Z,9.70
2018-06-15T02:54:17.263Z,9.70
2018-06-15T02:56:45.793Z,9.70
2018-06-15T02:59:14.303Z,9.70
2018-06-15T03:01:42.703Z,9.50
2018-06-15T03:04:11.279Z,9.50
2018-06-15T03:06:39.951Z,9.40
2018-06-15T03:09:08.436Z,9.30
2018-06-15T03:11:36.968Z,9.30
2018-06-15T03:14:06.132Z,9.30
2018-06-15T03:16:34.693Z,9.30
2018-06-15T03:19:03.420Z,9.20
2018-06-15T03:21:32.049Z,9.20
2018-06-15T03:24:00.582Z,9.20
2018-06-15T03:26:29.163Z,9.20
2018-06-15T03:28:57.844Z,9.10
2018-06-15T03:31:26.367Z,9.00
2018-06-15T03:33:55.157Z,9.00
2018-06-15T03:36:23.853Z,9.10
2018-06-15T03:38:52.472Z,9.10
2018-06-15T03:41:21.882Z,9.00
2018-06-15T03:43:50.309Z,9.00
2018-06-15T03:46:18.782Z,9.00
2018-06-15T03:48:47.197Z,9.20
2018-06-15T03:51:15.774Z,9.30
2018-06-15T03:53:45.194Z,9.30
2018-06-15T03:56:13.669Z,9.30
2018-06-15T03:58:42.206Z,9.30
2018-06-15T04:01:10.748Z,9.30
2018-06-15T04:03:39.247Z,9.20
2018-06-15T04:06:07.983Z,9.20
2018-06-15T04:08:36.483Z,9.20
2018-06-15T04:11:04.873Z,9.20
2018-06-15T04:13:34.216Z,9.30
2018-06-15T04:16:02.773Z,9.20
2018-06-15T04:18:31.382Z,9.20
2018-06-15T04:20:59.855Z,9.10
2018-06-15T04:23:28.879Z,9.20
2018-06-15T04:25:57.543Z,9.30
2018-06-15T04:28:26.284Z,9.40
2018-06-15T04:30:54.791Z,9.50
2018-06-15T04:33:23.419Z,9.60
2018-06-15T04:35:52.096Z,9.60
2018-06-15T04:38:20.593Z,9.80
2018-06-15T04:40:49.164Z,9.90
2018-06-15T04:43:17.912Z,9.90
2018-06-15T04:45:46.724Z,10.10
2018-06-15T04:48:15.305Z,10.20
2018-06-15T04:50:43.802Z,10.30
2018-06-15T04:53:12.371Z,10.40
2018-06-15T04:55:40.800Z,10.50
2018-06-15T04:58:09.195Z,10.60
2018-06-15T05:00:37.736Z,10.70
2018-06-15T05:03:06.170Z,10.80
2018-06-15T05:05:34.966Z,10.80
2018-06-15T05:08:06.310Z,10.90
2018-06-15T05:10:38.473Z,10.90
2018-06-15T05:13:06.954Z,10.90
2018-06-15T05:15:35.464Z,11.10
2018-06-15T05:18:04.144Z,11.10
2018-06-15T05:20:32.694Z,11.20
2018-06-15T05:23:01.400Z,11.30
2018-06-15T05:25:30.189Z,11.40
2018-06-15T05:27:58.847Z,11.50
2018-06-15T05:30:27.478Z,11.70
2018-06-15T05:32:56.112Z,11.70
2018-06-15T05:35:24.544Z,11.70
2018-06-15T05:37:53.000Z,11.80
2018-06-15T05:40:21.399Z,11.90
2018-06-15T05:42:50.589Z,12.00
2018-06-15T05:45:19.074Z,12.20
2018-06-15T05:47:47.884Z,12.50
2018-06-15T05:50:16.317Z,12.50
2018-06-15T05:52:45.371Z,12.60
2018-06-15T05:55:13.835Z,12.70
2018-06-15T05:57:42.260Z,12.90
2018-06-15T06:00:10.788Z,13.10
2018-06-15T06:02:39.247Z,13.30
2018-06-15T06:05:08.553Z,13.60
2018-06-15T06:07:36.971Z,13.80
2018-06-15T06:10:06.015Z,13.90
2018-06-15T06:12:34.487Z,14.10
2018-06-15T06:15:03.151Z,14.10
2018-06-15T06:17:31.700Z,14.10
2018-06-15T06:20:00.354Z,14.10
2018-06-15T06:22:28.974Z,14.00
2018-06-15T06:24:58.429Z,14.00
2018-06-15T06:29:54.971Z,14.10
2018-06-15T06:32:23.536Z,14.20
2018-06-15T06:34:52.225Z,14.30
2018-06-15T06:37:20.760Z,14.40
2018-06-15T06:39:49.377Z,14.80
2018-06-15T06:42:17.801Z,14.90
2018-06-15T06:44:46.333Z,15.10
2018-06-15T06:47:14.740Z,15.30
2018-06-15T06:49:43.177Z,15.40
2018-06-15T06:52:11.611Z,15.20
2018-06-15T06:54:40.078Z,15.20
2018-06-15T06:57:08.696Z,15.20
2018-06-15T06:59:37.690Z,15.20
2018-06-15T07:02:06.296Z,15.20
2018-06-15T07:04:34.864Z,15.30
2018-06-15T07:07:03.382Z,15.30
2018-06-15T07:09:31.900Z,15.50
2018-06-15T07:12:00.479Z,15.70
2018-06-15T07:14:28.943Z,15.80
2018-06-15T07:16:57.634Z,15.80
2018-06-15T07:19:26.175Z,15.90
2018-06-15T07:21:54.783Z,15.90
2018-06-15T07:24:24.078Z,16.10
2018-06-15T07:26:52.731Z,16.20
2018-06-15T07:29:21.266Z,16.20
2018-06-15T07:31:49.814Z,16.40
2018-06-15T07:34:18.273Z,16.40
2018-06-15T07:36:47.312Z,16.30
2018-06-15T07:39:15.943Z,16.30
2018-06-15T07:41:44.592Z,16.30
2018-06-15T07:44:13.644Z,16.40
2018-06-15T07:46:42.272Z,16.50
2018-06-15T07:49:11.399Z,16.80
2018-06-15T07:51:40.603Z,16.90
2018-06-15T07:54:09.579Z,17.20
2018-06-15T07:56:38.127Z,17.40
2018-06-15T07:59:06.871Z,17.70
2018-06-15T08:01:35.561Z,17.90
2018-06-15T08:04:06.732Z,18.10
2018-06-15T08:06:35.358Z,18.20
2018-06-15T08:09:05.582Z,18.40
2018-06-15T08:11:34.198Z,18.50
2018-06-15T08:14:02.777Z,18.60
2018-06-15T08:16:31.752Z,18.40
2018-06-15T08:19:00.507Z,18.50
2018-06-15T08:21:29.742Z,18.50
2018-06-15T08:23:58.416Z,18.60
2018-06-15T08:26:27.080Z,18.60
2018-06-15T08:28:55.669Z,18.70
2018-06-15T08:31:24.810Z,18.70
2018-06-15T08:33:53.537Z,18.90
2018-06-15T08:36:22.047Z,19.10
2018-06-15T08:38:50.455Z,19.50
2018-06-15T08:41:18.996Z,19.80
2018-06-15T08:43:47.516Z,19.90
2018-06-15T08:46:16.067Z,20.00
2018-06-15T08:48:44.540Z,20.10
2018-06-15T08:51:13.249Z,20.00
2018-06-15T08:53:42.009Z,20.40
2018-06-15T08:56:10.656Z,20.50
2018-06-15T08:58:39.218Z,20.50
2018-06-15T09:01:07.712Z,20.90
2018-06-15T09:03:36.321Z,21.30
2018-06-15T09:06:05.659Z,21.60
2018-06-15T09:08:34.066Z,21.50
2018-06-15T09:11:02.547Z,21.50
2018-06-15T09:13:31.196Z,21.50
2018-06-15T09:16:00.337Z,21.40
2018-06-15T09:18:28.870Z,21.20
2018-06-15T09:20:57.759Z,21.10
2018-06-15T09:23:26.427Z,21.20
2018-06-15T09:25:55.017Z,21.30
2018-06-15T09:28:23.802Z,21.30
2018-06-15T09:30:52.790Z,21.10
2018-06-15T09:33:22.107Z,21.30
2018-06-15T09:35:51.512Z,21.30
2018-06-15T09:38:20.067Z,21.10
2018-06-15T09:40:48.505Z,21.30
2018-06-15T09:43:17.020Z,21.70
2018-06-15T09:45:46.333Z,21.80
2018-06-15T09:48:15.000Z,22.10
2018-06-15T09:50:43.444Z,21.90
2018-06-15T09:53:12.066Z,22.00
2018-06-15T09:55:40.516Z,22.40
2018-06-15T09:58:09.125Z,22.40
2018-06-15T10:00:43.013Z,22.20
2018-06-15T10:03:11.466Z,22.30
2018-06-15T10:05:39.928Z,22.20
2018-06-15T10:08:08.351Z,22.30
2018-06-15T10:10:36.961Z,22.30
2018-06-15T10:13:05.541Z,22.50
2018-06-15T10:15:34.095Z,22.90
2018-06-15T10:18:02.618Z,22.90
2018-06-15T10:20:31.051Z,23.10
2018-06-15T10:22:59.639Z,23.20
2018-06-15T10:25:28.353Z,23.30
2018-06-15T10:27:56.791Z,23.50
2018-06-15T10:30:25.372Z,23.80
2018-06-15T10:32:54.760Z,23.90
2018-06-15T10:35:23.308Z,24.10
2018-06-15T10:37:51.768Z,24.20
2018-06-15T10:40:20.409Z,24.40
2018-06-15T10:42:48.908Z,24.60
2018-06-15T10:45:17.501Z,24.70
2018-06-15T10:47:46.013Z,24.40
2018-06-15T10:50:14.830Z,23.40
2018-06-15T10:52:43.285Z,23.00
2018-06-15T10:55:11.845Z,22.40
2018-06-15T10:57:41.126Z,22.10
2018-06-15T11:00:09.687Z,21.90
2018-06-15T11:02:38.293Z,21.80
2018-06-15T11:05:07.299Z,21.80
2018-06-15T11:07:35.959Z,22.20
2018-06-15T11:10:04.761Z,22.70
2018-06-15T11:12:34.452Z,22.50
2018-06-15T11:15:04.005Z,22.90
2018-06-15T11:17:32.870Z,22.80
2018-06-15T11:20:01.641Z,22.20
2018-06-15T11:22:30.131Z,22.00
2018-06-15T11:24:59.039Z,21.90
2018-06-15T11:27:27.634Z,22.60
2018-06-15T11:29:56.136Z,23.50
2018-06-15T11:32:24.653Z,24.40
2018-06-15T11:34:53.255Z,24.40
2018-06-15T11:37:21.910Z,24.70
2018-06-15T11:39:50.641Z,25.50
2018-06-15T11:42:19.255Z,26.00
2018-06-15T11:44:47.787Z,25.70
2018-06-15T11:47:16.568Z,26.10
2018-06-15T11:49:45.067Z,25.90
2018-06-15T11:52:14.394Z,25.80
2018-06-15T11:57:11.329Z,25.80
2018-06-15T11:59:39.802Z,26.10
2018-06-15T12:02:09.347Z,26.20
2018-06-15T12:04:38.103Z,26.10
2018-06-15T12:07:06.607Z,26.30
2018-06-15T12:09:35.126Z,26.40
2018-06-15T12:12:04.256Z,26.00
2018-06-15T12:14:32.879Z,26.40
2018-06-15T12:17:01.629Z,26.20
2018-06-15T12:19:30.090Z,25.70
2018-06-15T12:21:59.525Z,25.40
2018-06-15T12:24:28.273Z,26.00
2018-06-15T12:26:56.784Z,26.10
2018-06-15T12:29:25.532Z,26.50
2018-06-15T12:31:54.057Z,26.50
2018-06-15T12:34:22.550Z,26.40
2018-06-15T12:36:51.179Z,26.20
2018-06-15T12:39:19.796Z,26.60
2018-06-15T12:41:48.337Z,27.00
2018-06-15T12:44:16.793Z,27.40
2018-06-15T12:46:45.392Z,27.50
2018-06-15T12:49:13.835Z,27.80
2018-06-15T12:51:42.530Z,27.70
2018-06-15T12:54:11.108Z,27.80
2018-06-15T12:56:40.006Z,27.40
2018-06-15T12:59:08.792Z,27.40
2018-06-15T13:01:37.895Z,27.50
2018-06-15T13:04:06.930Z,27.60
2018-06-15T13:06:35.412Z,27.00
2018-06-15T13:09:05.536Z,27.30
2018-06-15T13:11:34.315Z,27.40
2018-06-15T13:14:02.911Z,27.50
2018-06-15T13:16:31.849Z,27.50
2018-06-15T13:19:00.463Z,27.50
2018-06-15T13:21:29.136Z,27.40
2018-06-15T13:23:57.856Z,27.40
2018-06-15T13:26:26.488Z,27.60
2018-06-15T13:28:54.979Z,28.00
2018-06-15T13:31:23.452Z,28.50
2018-06-15T13:33:52.011Z,28.00
2018-06-15T13:36:21.137Z,27.30
2018-06-15T13:38:50.263Z,26.00
2018-06-15T13:41:19.612Z,25.60
2018-06-15T13:43:48.882Z,25.10
2018-06-15T13:46:17.611Z,25.10
2018-06-15T13:48:46.209Z,24.80
2018-06-15T13:51:14.962Z,24.40
2018-06-15T13:53:43.791Z,24.70
2018-06-15T13:56:12.591Z,25.30
2018-06-15T13:58:41.279Z,26.00
2018-06-15T14:01:10.631Z,26.70
2018-06-15T14:03:39.216Z,27.60
2018-06-15T14:06:07.740Z,28.80
2018-06-15T14:08:36.297Z,30.20
2018-06-15T14:11:04.806Z,31.40
2018-06-15T14:13:33.527Z,30.50
2018-06-15T14:16:02.426Z,30.80
2018-06-15T14:18:30.988Z,30.20
2018-06-15T14:20:59.892Z,30.70
2018-06-15T14:23:28.517Z,30.30
2018-06-15T14:25:56.978Z,28.60
2018-06-15T14:28:25.736Z,27.30
2018-06-15T14:30:54.683Z,26.60
2018-06-15T14:33:23.280Z,26.80
2018-06-15T14:35:51.820Z,27.50
2018-06-15T14:38:21.015Z,29.10
2018-06-15T14:40:50.021Z,30.40
2018-06-15T14:43:18.629Z,31.10
2018-06-15T14:45:47.188Z,32.10
2018-06-15T14:48:16.027Z,31.90
2018-06-15T14:50:44.605Z,30.10
2018-06-15T14:53:13.060Z,28.60
2018-06-15T14:55:41.557Z,29.10
2018-06-15T14:58:10.389Z,30.40
2018-06-15T15:00:39.090Z,30.70
2018-06-15T15:03:07.717Z,31.80
2018-06-15T15:05:36.185Z,32.50
2018-06-15T15:08:05.048Z,33.40
2018-06-15T15:10:33.894Z,33.60
2018-06-15T15:13:02.998Z,33.80
2018-06-15T15:15:31.487Z,33.50
2018-06-15T15:18:00.121Z,32.60
2018-06-15T15:20:29.002Z,31.20
2018-06-15T15:22:57.558Z,29.20
2018-06-15T15:25:26.487Z,28.70
2018-06-15T15:27:55.213Z,28.00
2018-06-15T15:30:23.703Z,27.30
2018-06-15T15:32:52.279Z,26.70
2018-06-15T15:35:20.867Z,25.60
2018-06-15T15:37:50.100Z,25.40
2018-06-15T15:40:19.568Z,25.70
2018-06-15T15:42:48.199Z,26.60
2018-06-15T15:45:16.724Z,28.10
2018-06-15T15:47:45.389Z,28.90
2018-06-15T15:50:14.016Z,30.40
2018-06-15T15:52:42.590Z,30.50
2018-06-15T15:55:11.108Z,31.30
2018-06-15T15:57:39.728Z,32.00
2018-06-15T16:00:08.329Z,31.80
2018-06-15T16:02:36.899Z,32.80
2018-06-15T16:05:05.484Z,33.70
2018-06-15T16:07:34.083Z,30.80
2018-06-15T16:10:02.685Z,29.90
2018-06-15T16:12:31.276Z,29.10
2018-06-15T16:14:59.755Z,27.50
2018-06-15T16:17:29.156Z,26.70
2018-06-15T16:19:57.950Z,26.70
2018-06-15T16:22:26.521Z,28.20
2018-06-15T16:24:55.078Z,28.70
2018-06-15T16:27:23.656Z,29.50
2018-06-15T16:29:52.323Z,30.10
2018-06-15T16:32:20.917Z,30.90
2018-06-15T16:34:49.600Z,31.90
2018-06-15T16:37:18.320Z,32.50
2018-06-15T16:39:47.427Z,32.50
2018-06-15T16:42:15.980Z,31.90
2018-06-15T16:44:44.534Z,31.60
2018-06-15T16:47:13.292Z,31.70
2018-06-15T16:49:42.047Z,31.60
2018-06-15T16:52:10.637Z,31.80
2018-06-15T16:54:39.154Z,31.70
2018-06-15T16:57:08.183Z,32.90
2018-06-15T17:02:04.959Z,32.40
2018-06-15T17:04:33.637Z,31.20
2018-06-15T17:07:02.148Z,30.00
2018-06-15T17:09:30.799Z,28.70
2018-06-15T17:11:59.176Z,27.40
2018-06-15T17:14:27.793Z,27.30
2018-06-15T17:16:56.277Z,27.90
2018-06-15T17:19:24.840Z,28.90
2018-06-15T17:21:53.528Z,29.90
2018-06-15T17:24:22.115Z,30.10
2018-06-15T17:26:50.966Z,30.80
2018-06-15T17:29:19.665Z,30.30
2018-06-15T17:31:48.255Z,30.10
2018-06-15T17:34:16.715Z,30.00
2018-06-15T17:39:14.555Z,30.00
2018-06-15T17:41:44.674Z,30.40
2018-06-15T17:44:13.318Z,30.00
2018-06-15T17:46:41.736Z,30.00
2018-06-15T17:49:10.233Z,30.20
2018-06-15T17:51:39.319Z,29.60
2018-06-15T17:54:08.123Z,29.20
2018-06-15T17:56:36.827Z,29.10
2018-06-15T17:59:05.681Z,29.10
2018-06-15T18:01:34.147Z,28.80
2018-06-15T18:04:02.720Z,28.60
2018-06-15T18:06:31.263Z,27.90
2018-06-15T18:08:59.960Z,27.10
2018-06-15T18:11:28.416Z,26.10
2018-06-15T18:13:56.948Z,25.30
2018-06-15T18:16:25.765Z,24.40
2018-06-15T18:18:54.226Z,23.80
2018-06-15T18:21:22.728Z,23.40
2018-06-15T18:23:51.379Z,22.80
2018-06-15T18:26:19.995Z,22.20
2018-06-15T18:31:16.694Z,21.50
2018-06-15T18:33:45.248Z,21.10
2018-06-15T18:36:13.704Z,20.70
2018-06-15T18:38:42.485Z,20.30
2018-06-15T18:41:11.081Z,20.00
2018-06-15T18:43:39.579Z,19.80
2018-06-15T18:46:08.333Z,19.40
2018-06-15T18:48:36.966Z,19.10
2018-06-15T18:51:05.569Z,18.90
2018-06-15T18:53:34.203Z,18.60
2018-06-15T18:56:02.800Z,18.50
2018-06-15T18:58:31.274Z,18.30
2018-06-15T19:00:59.924Z,18.20
2018-06-15T19:03:28.409Z,17.90
2018-06-15T19:05:56.945Z,17.80
2018-06-15T19:08:25.583Z,17.60
2018-06-15T19:10:54.215Z,17.50
2018-06-15T19:13:22.723Z,17.40
2018-06-15T19:15:51.324Z,17.30
2018-06-15T19:18:20.518Z,17.10
2018-06-15T19:20:49.371Z,16.90
2018-06-15T19:23:17.978Z,16.70
2018-06-15T19:25:46.753Z,16.50
2018-06-15T19:28:15.300Z,16.40
2018-06-15T19:30:43.866Z,16.40
2018-06-15T19:33:12.690Z,16.20
2018-06-15T19:35:41.393Z,16.20
2018-06-15T19:38:09.891Z,16.10
2018-06-15T19:40:38.499Z,16.00
2018-06-15T19:45:35.189Z,15.80
2018-06-15T19:48:03.794Z,15.60
2018-06-15T19:50:32.318Z,15.40
2018-06-15T19:53:00.879Z,15.30
2018-06-15T19:55:29.381Z,15.20
2018-06-15T20:00:26.236Z,15.10
2018-06-15T20:02:54.920Z,14.90
2018-06-15T20:05:23.601Z,14.80
2018-06-15T20:07:52.146Z,14.70
2018-06-15T20:10:20.851Z,14.60
2018-06-15T20:12:49.566Z,14.60
2018-06-15T20:15:18.155Z,14.50
2018-06-15T20:17:46.909Z,14.30
2018-06-15T20:20:15.466Z,14.30
2018-06-15T20:22:44.293Z,14.20
2018-06-15T20:25:12.815Z,14.20
2018-06-15T20:27:41.409Z,14.10
2018-06-15T20:30:09.933Z,14.10
2018-06-15T20:32:38.439Z,14.00
2018-06-15T20:35:07.114Z,13.90
2018-06-15T20:37:35.662Z,13.80
2018-06-15T20:40:04.329Z,13.80
2018-06-15T20:42:33.015Z,13.60
2018-06-15T20:45:01.597Z,13.50
2018-06-15T20:47:30.177Z,13.50
2018-06-15T20:49:58.674Z,13.40
2018-06-15T20:52:27.235Z,13.40
2018-06-15T20:54:55.755Z,13.30
2018-06-15T20:59:52.374Z,13.20
2018-06-15T21:02:20.808Z,13.20
2018-06-15T21:04:49.318Z,13.20
2018-06-15T21:07:17.957Z,13.00
2018-06-15T21:09:46.682Z,13.00
2018-06-15T21:12:15.587Z,12.90
2018-06-15T21:14:44.144Z,12.90
2018-06-15T21:17:13.022Z,12.70
2018-06-15T21:19:41.504Z,12.70
2018-06-15T21:22:09.967Z,12.50
2018-06-15T21:24:38.532Z,12.50
2018-06-15T21:27:07.096Z,12.60
2018-06-15T21:29:35.643Z,12.50
2018-06-15T21:32:04.299Z,12.40
2018-06-15T21:34:32.968Z,12.50
2018-06-15T21:37:01.733Z,12.50
2018-06-15T21:39:30.348Z,12.40
2018-06-15T21:41:59.056Z,12.40
2018-06-15T21:44:28.260Z,12.30
2018-06-15T21:46:56.711Z,12.30
2018-06-15T21:49:25.208Z,12.30
2018-06-15T21:51:53.928Z,12.20
2018-06-15T21:54:22.507Z,12.10
2018-06-15T21:56:51.109Z,12.10
2018-06-15T21:59:23.309Z,12.00
2018-06-15T22:01:51.868Z,12.10
2018-06-15T22:04:20.433Z,12.00
2018-06-15T22:06:48.986Z,11.90
2018-06-15T22:09:17.458Z,12.00
2018-06-15T22:11:45.925Z,11.90
2018-06-15T22:14:16.208Z,11.80
2018-06-15T22:16:49.360Z,11.80
2018-06-15T22:19:19.659Z,11.70
2018-06-15T22:21:49.667Z,11.70
2018-06-15T22:24:18.238Z,11.70
2018-06-15T22:26:46.788Z,11.50
2018-06-15T22:31:43.536Z,11.40
2018-06-15T22:34:11.983Z,11.20
2018-06-15T22:36:40.968Z,11.30
2018-06-15T22:39:12.963Z,11.20
2018-06-15T22:41:42.040Z,11.20
2018-06-15T22:44:11.188Z,11.20
2018-06-15T22:46:40.220Z,11.30
2018-06-15T22:49:09.644Z,11.20
2018-06-15T22:51:38.426Z,11.20
2018-06-15T22:54:07.194Z,11.10
2018-06-15T22:56:35.812Z,11.10
2018-06-15T22:59:04.263Z,11.10
2018-06-15T23:01:32.852Z,11.10
2018-06-15T23:04:01.390Z,11.00
2018-06-15T23:06:29.816Z,11.00
2018-06-15T23:08:58.323Z,10.90
2018-06-15T23:11:26.795Z,10.90
2018-06-15T23:13:55.317Z,10.80
2018-06-15T23:16:23.804Z,10.80
2018-06-15T23:18:52.286Z,10.80
2018-06-15T23:21:20.724Z,10.70
2018-06-15T23:23:49.436Z,10.70
2018-06-15T23:26:18.090Z,10.60
2018-06-15T23:28:46.563Z,10.60
2018-06-15T23:31:15.062Z,10.60
2018-06-15T23:33:43.539Z,10.60
2018-06-15T23:36:12.106Z,10.50
2018-06-15T23:38:41.372Z,10.50
2018-06-15T23:41:09.881Z,10.40
2018-06-15T23:43:38.494Z,10.40
2018-06-15T23:46:06.947Z,10.40
2018-06-15T23:48:35.509Z,10.40
2018-06-15T23:51:05.058Z,10.40
2018-06-15T23:53:33.579Z,10.30
2018-06-15T23:56:02.106Z,10.30
2018-06-15T23:58:30.809Z,10.20
